Time;durP1;ratioP1;P1;durP2;ratioP2;P2;SDS_P1;SDS_P2;PMS_P1;PMS_P2;Temp;Humidity;BMP_temperature;BMP_pressure;BME280_temperature;BME280_humidity;BME280_pressure;Samples;Min_cycle;Max_cycle;Signal;HPM_P1;HPM_P2
2023/08/18 00:00:14;;;;;;;8.20;7.50;;;17.10;99.90;;;;;;5053737;28;20410;-90
2023/08/18 00:02:40;;;;;;;6.90;6.30;;;17.00;99.90;;;;;;5053645;28;20428;-90
2023/08/18 00:05:07;;;;;;;7.77;7.07;;;17.00;99.90;;;;;;5053978;28;20459;-89
2023/08/18 00:07:32;;;;;;;8.65;7.78;;;17.00;99.90;;;;;;5053331;28;20420;-90
2023/08/18 00:09:58;;;;;;;8.52;7.72;;;17.00;99.90;;;;;;5054548;28;20398;-90
2023/08/18 00:12:23;;;;;;;8.50;7.70;;;17.30;99.90;;;;;;5053173;28;20437;-90
2023/08/18 00:14:51;;;;;;;9.30;8.38;;;17.30;99.90;;;;;;5070318;28;20394;-91
2023/08/18 00:17:17;;;;;;;9.13;8.23;;;17.00;99.90;;;;;;5053011;28;20398;-89
2023/08/18 00:19:43;;;;;;;8.65;7.95;;;17.00;99.90;;;;;;5053745;28;20497;-90
2023/08/18 00:22:09;;;;;;;8.52;7.80;;;16.90;99.90;;;;;;5053458;28;20413;-90
2023/08/18 00:24:35;;;;;;;8.52;7.75;;;16.90;99.90;;;;;;5069943;28;20897;-89
2023/08/18 00:27:01;;;;;;;7.75;7.05;;;16.90;99.90;;;;;;5053510;28;20458;-88
2023/08/18 00:29:26;;;;;;;8.40;7.70;;;16.90;99.90;;;;;;5052754;28;20394;-91
2023/08/18 00:31:52;;;;;;;8.15;7.45;;;16.90;99.90;;;;;;5054008;28;20401;-90
2023/08/18 00:34:18;;;;;;;8.70;8.00;;;16.90;99.90;;;;;;5053279;28;20440;-91
2023/08/18 00:36:43;;;;;;;7.87;7.10;;;16.80;99.90;;;;;;5053989;28;20414;-90
2023/08/18 00:39:09;;;;;;;6.97;6.27;;;16.90;99.90;;;;;;5053450;28;20966;-92
2023/08/18 00:41:35;;;;;;;7.00;6.50;;;16.90;99.90;;;;;;5052631;28;20433;-90
2023/08/18 00:44:00;;;;;;;6.32;5.75;;;17.30;99.90;;;;;;5053164;28;20398;-90
2023/08/18 00:46:27;;;;;;;6.53;5.97;;;16.90;99.90;;;;;;5069615;28;20429;-90
2023/08/18 00:48:53;;;;;;;6.43;5.82;;;16.90;99.90;;;;;;5053678;28;20883;-90
2023/08/18 00:51:20;;;;;;;6.03;5.38;;;17.20;99.90;;;;;;5052715;28;20468;-91
2023/08/18 00:53:45;;;;;;;6.20;5.60;;;16.80;99.90;;;;;;5053510;28;20406;-90
2023/08/18 00:56:12;;;;;;;6.60;6.00;;;17.20;99.90;;;;;;5052685;28;20405;-89
2023/08/18 00:58:38;;;;;;;5.80;5.23;;;16.80;99.90;;;;;;5069216;28;20420;-89
2023/08/18 01:01:04;;;;;;;5.70;5.20;;;16.70;99.90;;;;;;5069841;28;20467;-89
2023/08/18 01:03:30;;;;;;;5.90;5.28;;;16.60;99.90;;;;;;5052603;28;20466;-90
2023/08/18 01:05:56;;;;;;;5.73;5.23;;;16.60;99.90;;;;;;5069698;28;20425;-89
2023/08/18 01:08:22;;;;;;;5.55;5.05;;;16.60;99.90;;;;;;5068769;28;20957;-90
2023/08/18 01:10:53;;;;;;;5.97;5.47;;;16.70;99.90;;;;;;5053568;28;20434;-91
2023/08/18 01:13:47;;;;;;;5.78;5.30;;;16.40;99.90;;;;;;5053033;28;20845;-88
2023/08/18 01:16:21;;;;;;;6.35;4.60;;;16.60;99.90;;;;;;5068503;28;20416;-90
2023/08/18 01:18:47;;;;;;;5.57;4.68;;;16.60;99.90;;;;;;5070110;28;20736;-89
2023/08/18 01:21:15;;;;;;;5.20;4.70;;;16.20;99.90;;;;;;5069148;28;20961;-90
2023/08/18 01:23:41;;;;;;;5.28;4.57;;;16.30;99.90;;;;;;5053246;28;20398;-90
2023/08/18 01:26:07;;;;;;;5.33;4.40;;;16.20;99.90;;;;;;5068619;28;20433;-90
2023/08/18 01:28:36;;;;;;;4.90;4.38;;;16.40;99.90;;;;;;5053137;28;20875;-89
2023/08/18 01:31:10;;;;;;;5.28;4.30;;;16.10;99.90;;;;;;5052416;28;20493;-90
2023/08/18 01:34:00;;;;;;;4.90;4.40;;;16.30;99.90;;;;;;5052337;28;20409;-92
2023/08/18 01:36:37;;;;;;;4.70;4.30;;;16.40;99.90;;;;;;5052733;28;20902;-91
2023/08/18 01:39:05;;;;;;;4.95;4.45;;;16.30;99.90;;;;;;5068835;28;20440;-90
2023/08/18 01:41:32;;;;;;;4.82;4.40;;;16.20;99.90;;;;;;5052844;28;20512;-90
2023/08/18 01:43:59;;;;;;;4.78;4.22;;;16.10;99.90;;;;;;5052376;28;20918;-89
2023/08/18 01:46:25;;;;;;;5.30;4.75;;;16.30;99.90;;;;;;5052256;28;20436;-92
2023/08/18 01:48:51;;;;;;;5.23;4.77;;;16.10;99.90;;;;;;5066683;28;20907;-90
2023/08/18 01:51:16;;;;;;;4.63;4.22;;;16.10;99.90;;;;;;5051265;28;20399;-90
2023/08/18 01:53:42;;;;;;;5.47;4.77;;;16.10;99.90;;;;;;5052902;28;20485;-90
2023/08/18 01:56:08;;;;;;;5.20;4.70;;;16.10;99.90;;;;;;5052117;28;20402;-89
2023/08/18 01:58:33;;;;;;;4.43;3.73;;;16.10;99.90;;;;;;5052644;28;20455;-89
2023/08/18 02:00:59;;;;;;;4.65;3.80;;;16.20;99.90;;;;;;5052120;28;20402;-89
2023/08/18 02:03:28;;;;;;;5.10;4.70;;;16.10;99.90;;;;;;5052293;28;20489;-89
2023/08/18 02:05:58;;;;;;;6.00;4.60;;;16.30;99.90;;;;;;5052642;28;21107;-91
2023/08/18 02:08:24;;;;;;;5.03;4.53;;;16.00;99.90;;;;;;5068672;28;20406;-88
2023/08/18 02:10:50;;;;;;;5.13;4.50;;;16.10;99.90;;;;;;5053279;28;20902;-90
2023/08/18 02:13:15;;;;;;;5.28;4.57;;;16.20;99.90;;;;;;5053097;28;20408;-90
2023/08/18 02:15:44;;;;;;;5.13;4.63;;;16.50;99.90;;;;;;5055384;28;20766;-89
2023/08/18 02:18:10;;;;;;;6.07;4.90;;;16.40;99.90;;;;;;5055314;28;20401;-91
2023/08/18 02:20:38;;;;;;;5.43;4.93;;;16.40;99.90;;;;;;5056024;28;20398;-89
2023/08/18 02:23:04;;;;;;;5.50;4.68;;;16.10;99.90;;;;;;5056033;28;20406;-89
2023/08/18 02:25:30;;;;;;;5.50;5.00;;;16.20;99.90;;;;;;5054899;28;20950;-89
2023/08/18 02:27:55;;;;;;;5.90;4.47;;;16.10;99.90;;;;;;5055597;28;20439;-90
2023/08/18 02:30:21;;;;;;;5.93;4.83;;;16.00;99.90;;;;;;5054572;28;20444;-88
2023/08/18 02:32:46;;;;;;;6.03;5.53;;;16.20;99.90;;;;;;5056156;28;20513;-90
2023/08/18 02:35:12;;;;;;;5.60;5.03;;;16.40;99.90;;;;;;5055019;28;20398;-90
2023/08/18 02:37:38;;;;;;;6.15;5.55;;;16.40;99.90;;;;;;5055739;28;20898;-89
2023/08/18 02:40:05;;;;;;;6.07;5.50;;;16.10;99.90;;;;;;5055551;28;20906;-90
2023/08/18 02:42:33;;;;;;;6.07;5.53;;;16.10;99.90;;;;;;5071549;28;20401;-89
2023/08/18 02:44:59;;;;;;;6.32;5.75;;;16.10;99.90;;;;;;5055319;28;20395;-90
2023/08/18 02:47:26;;;;;;;6.80;6.17;;;16.20;99.90;;;;;;5054540;28;20895;-89
2023/08/18 02:49:52;;;;;;;6.88;6.28;;;16.10;99.90;;;;;;5055582;28;20410;-88
2023/08/18 02:52:17;;;;;;;6.80;6.20;;;16.40;99.90;;;;;;5054548;28;20458;-90
2023/08/18 02:54:43;;;;;;;6.87;6.17;;;16.40;99.90;;;;;;5055171;28;20467;-89
2023/08/18 02:57:09;;;;;;;7.10;6.40;;;16.20;99.90;;;;;;5054389;28;20494;-89
2023/08/18 02:59:34;;;;;;;6.03;5.53;;;16.10;99.90;;;;;;5071365;28;20390;-90
2023/08/18 03:02:00;;;;;;;7.05;6.40;;;16.10;99.90;;;;;;5055100;28;20399;-89
2023/08/18 03:04:26;;;;;;;6.23;5.73;;;16.10;99.90;;;;;;5053956;28;20495;-88
2023/08/18 03:06:51;;;;;;;6.82;6.13;;;16.10;99.90;;;;;;5071455;28;20426;-91
2023/08/18 03:09:17;;;;;;;7.27;6.17;;;16.20;99.90;;;;;;5053965;28;20402;-89
2023/08/18 03:11:43;;;;;;;7.03;6.28;;;16.10;99.90;;;;;;5071560;28;20409;-89
2023/08/18 03:14:08;;;;;;;6.25;5.65;;;16.30;99.90;;;;;;5054560;28;20497;-88
2023/08/18 03:16:34;;;;;;;8.00;7.00;;;16.10;99.90;;;;;;5054583;28;20907;-90
2023/08/18 03:19:00;;;;;;;7.80;7.00;;;16.10;99.90;;;;;;5054707;28;20410;-89
2023/08/18 03:21:26;;;;;;;7.55;6.95;;;16.10;99.90;;;;;;5053911;28;20398;-90
2023/08/18 03:23:51;;;;;;;7.30;6.60;;;16.20;99.90;;;;;;5070988;28;20402;-89
2023/08/18 03:26:17;;;;;;;7.68;7.03;;;16.20;99.90;;;;;;5053456;28;20437;-89
2023/08/18 03:28:43;;;;;;;7.38;6.68;;;16.20;99.90;;;;;;5071657;28;20775;-89
2023/08/18 03:31:09;;;;;;;7.33;6.67;;;16.20;99.90;;;;;;5053893;28;20450;-91
2023/08/18 03:33:35;;;;;;;7.65;6.95;;;16.30;99.90;;;;;;5054372;28;20417;-90
2023/08/18 03:36:01;;;;;;;7.03;6.35;;;16.40;99.90;;;;;;5053951;28;20922;-89
2023/08/18 03:38:27;;;;;;;8.00;6.40;;;16.30;99.90;;;;;;5054252;28;20409;-89
2023/08/18 03:41:04;;;;;;;7.57;6.88;;;16.70;99.90;;;;;;5054101;28;20409;-90
2023/08/18 03:43:31;;;;;;;7.70;6.97;;;16.30;99.90;;;;;;5053391;28;20412;-89
2023/08/18 03:46:23;;;;;;;7.28;6.45;;;16.50;99.90;;;;;;5054297;28;20435;-89
2023/08/18 03:48:49;;;;;;;6.75;6.15;;;16.30;99.90;;;;;;5053690;28;20413;-89
2023/08/18 03:51:15;;;;;;;6.63;6.03;;;16.50;99.90;;;;;;5053446;28;20437;-90
2023/08/18 03:53:41;;;;;;;7.27;6.57;;;16.60;99.90;;;;;;5054145;28;20401;-89
2023/08/18 03:56:06;;;;;;;7.15;6.45;;;16.40;99.90;;;;;;5053574;28;20418;-90
2023/08/18 03:58:32;;;;;;;6.88;6.28;;;16.40;99.90;;;;;;5054001;28;20432;-91
2023/08/18 04:01:04;;;;;;;6.90;6.20;;;16.30;99.90;;;;;;5053176;28;20770;-88
2023/08/18 04:03:30;;;;;;;7.57;6.88;;;16.40;99.90;;;;;;5071029;28;20394;-89
2023/08/18 04:05:55;;;;;;;7.43;6.60;;;16.40;99.90;;;;;;5069524;28;20799;-88
2023/08/18 04:08:21;;;;;;;7.55;6.85;;;16.40;99.90;;;;;;5053205;28;20412;-90
2023/08/18 04:10:47;;;;;;;7.03;6.23;;;16.40;99.90;;;;;;5053959;28;20398;-91
2023/08/18 04:13:13;;;;;;;7.85;7.15;;;16.30;99.90;;;;;;5053016;28;20486;-89
2023/08/18 04:15:39;;;;;;;7.55;6.70;;;16.80;99.90;;;;;;5053705;28;20405;-90
2023/08/18 04:18:04;;;;;;;7.50;6.80;;;16.50;99.90;;;;;;5052736;28;20398;-89
2023/08/18 04:20:30;;;;;;;8.07;7.20;;;16.50;99.90;;;;;;5053734;28;20809;-89
2023/08/18 04:22:56;;;;;;;7.17;6.47;;;16.90;99.90;;;;;;5051918;28;20453;-90
2023/08/18 04:25:22;;;;;;;7.55;6.85;;;16.60;99.90;;;;;;5052753;28;20398;-89
2023/08/18 04:27:47;;;;;;;8.10;7.07;;;16.60;99.90;;;;;;5051906;28;20413;-90
2023/08/18 04:30:13;;;;;;;7.20;6.50;;;16.60;99.90;;;;;;5052246;28;20436;-88
2023/08/18 04:32:39;;;;;;;7.07;6.35;;;16.40;99.90;;;;;;5052488;28;20480;-89
2023/08/18 04:35:05;;;;;;;8.20;7.35;;;16.60;99.90;;;;;;5051194;28;20394;-89
2023/08/18 04:37:31;;;;;;;7.88;7.07;;;16.50;99.90;;;;;;5052285;28;20398;-89
2023/08/18 04:39:56;;;;;;;9.43;8.00;;;16.80;99.90;;;;;;5052939;28;20535;-89
2023/08/18 04:42:22;;;;;;;8.30;7.50;;;16.70;99.90;;;;;;5053668;28;20405;-90
2023/08/18 04:44:48;;;;;;;8.63;7.50;;;16.80;99.90;;;;;;5052341;28;20407;-89
2023/08/18 04:47:13;;;;;;;9.55;8.00;;;16.90;99.90;;;;;;5051591;28;20504;-89
2023/08/18 04:49:39;;;;;;;7.87;7.17;;;16.90;99.90;;;;;;5052334;28;20410;-89
2023/08/18 04:52:07;;;;;;;10.25;9.25;;;17.10;99.90;;;;;;5052760;28;20414;-89
2023/08/18 04:54:33;;;;;;;9.50;8.60;;;16.90;99.90;;;;;;5053087;28;20406;-90
2023/08/18 04:56:59;;;;;;;10.15;9.05;;;16.90;99.90;;;;;;5050808;28;20421;-90
2023/08/18 04:59:26;;;;;;;9.20;8.30;;;17.10;99.90;;;;;;5049318;28;20406;-90
2023/08/18 05:01:52;;;;;;;9.65;8.55;;;17.00;99.90;;;;;;5068316;28;20413;-89
2023/08/18 05:04:18;;;;;;;9.57;8.38;;;16.90;99.90;;;;;;5052720;28;20740;-89
2023/08/18 05:06:44;;;;;;;10.00;8.95;;;17.00;99.90;;;;;;5052499;28;20922;-91
2023/08/18 05:09:10;;;;;;;9.50;8.60;;;17.00;99.90;;;;;;5052297;28;20409;-89
2023/08/18 05:11:36;;;;;;;9.73;8.45;;;17.30;99.90;;;;;;5052103;28;20394;-89
2023/08/18 05:14:02;;;;;;;10.03;8.63;;;17.00;99.90;;;;;;5050981;28;20482;-90
2023/08/18 05:16:28;;;;;;;8.95;8.02;;;17.00;99.90;;;;;;5068658;28;20816;-89
2023/08/18 05:18:53;;;;;;;9.77;8.70;;;17.10;99.90;;;;;;5051113;28;20730;-88
2023/08/18 05:21:19;;;;;;;9.30;8.25;;;17.10;99.90;;;;;;5052361;28;20444;-89
2023/08/18 05:23:45;;;;;;;9.85;8.35;;;17.10;99.90;;;;;;5051419;28;20397;-89
2023/08/18 05:26:11;;;;;;;9.90;8.90;;;17.40;99.90;;;;;;5051515;28;20446;-91
2023/08/18 05:28:36;;;;;;;10.00;9.00;;;17.30;99.90;;;;;;5069245;28;20398;-88
2023/08/18 05:31:02;;;;;;;8.80;7.90;;;17.20;99.90;;;;;;5049710;28;20427;-88
2023/08/18 05:33:28;;;;;;;9.07;8.13;;;17.30;99.90;;;;;;5051513;28;20406;-91
2023/08/18 05:35:58;;;;;;;9.40;8.50;;;17.40;99.90;;;;;;5051818;28;20735;-89
2023/08/18 05:38:24;;;;;;;9.70;8.80;;;17.40;99.90;;;;;;5052400;28;20790;-89
2023/08/18 05:40:49;;;;;;;9.33;8.33;;;17.50;99.90;;;;;;5068029;28;20402;-88
2023/08/18 05:43:18;;;;;;;8.82;7.82;;;17.60;99.90;;;;;;5051593;28;20409;-90
2023/08/18 05:45:48;;;;;;;10.20;9.20;;;17.80;99.90;;;;;;5053527;28;20422;-88
2023/08/18 05:48:14;;;;;;;9.38;8.27;;;17.90;99.90;;;;;;5056085;28;20890;-89
2023/08/18 05:50:40;;;;;;;9.18;8.30;;;17.60;99.90;;;;;;5056084;28;20403;-89
2023/08/18 05:53:06;;;;;;;9.80;8.90;;;17.80;99.90;;;;;;5068176;28;21178;-90
2023/08/18 05:55:32;;;;;;;9.50;8.50;;;17.90;99.90;;;;;;5055881;28;20413;-92
2023/08/18 05:58:00;;;;;;;9.10;8.30;;;17.70;99.90;;;;;;5053961;28;20400;-92
2023/08/18 06:00:27;;;;;;;9.37;8.07;;;17.70;99.90;;;;;;5055358;28;20405;-91
2023/08/18 06:02:54;;;;;;;9.77;8.88;;;17.90;99.90;;;;;;5055326;28;20446;-90
2023/08/18 06:05:20;;;;;;;9.70;8.65;;;17.80;99.90;;;;;;5055166;28;20406;-92
2023/08/18 06:07:46;;;;;;;10.32;8.68;;;18.10;99.90;;;;;;5056594;28;20750;-90
2023/08/18 06:10:11;;;;;;;9.67;8.67;;;17.90;99.90;;;;;;5055292;28;20910;-90
2023/08/18 06:12:37;;;;;;;9.70;8.70;;;18.10;99.90;;;;;;5055055;28;20421;-90
2023/08/18 06:15:08;;;;;;;9.57;8.60;;;18.30;99.90;;;;;;5054150;28;20401;-90
2023/08/18 06:17:34;;;;;;;10.95;8.60;;;18.00;99.90;;;;;;5071956;28;20398;-90
2023/08/18 06:20:00;;;;;;;11.98;8.65;;;18.00;99.90;;;;;;5054103;28;20398;-93
2023/08/18 06:22:26;;;;;;;9.60;8.60;;;18.10;99.90;;;;;;5054367;28;20431;-90
2023/08/18 06:24:52;;;;;;;9.23;8.32;;;18.30;99.90;;;;;;5054367;28;20416;-91
2023/08/18 06:27:18;;;;;;;9.90;8.60;;;17.90;99.90;;;;;;5053425;28;20430;-91
2023/08/18 06:29:43;;;;;;;9.33;8.27;;;18.00;99.90;;;;;;5054420;28;20409;-90
2023/08/18 06:32:09;;;;;;;9.40;7.97;;;18.20;99.90;;;;;;5054287;28;20778;-93
2023/08/18 06:34:35;;;;;;;9.30;8.00;;;18.20;99.90;;;;;;5055277;28;20493;-91
2023/08/18 06:37:01;;;;;;;9.30;8.40;;;18.50;99.90;;;;;;5054394;28;20404;-91
2023/08/18 06:39:27;;;;;;;9.45;8.55;;;18.20;99.90;;;;;;5071559;28;20437;-92
2023/08/18 06:41:53;;;;;;;9.07;8.15;;;18.30;99.90;;;;;;5054808;28;21102;-91
2023/08/18 06:44:19;;;;;;;11.63;8.13;;;18.40;99.90;;;;;;5053951;28;20398;-91
2023/08/18 06:46:46;;;;;;;11.02;8.38;;;18.60;99.90;;;;;;5055334;28;20838;-92
2023/08/18 06:49:11;;;;;;;9.60;8.18;;;18.50;99.90;;;;;;5054100;28;20452;-91
2023/08/18 06:51:37;;;;;;;9.55;8.10;;;18.50;99.90;;;;;;5056289;28;20418;-92
2023/08/18 06:54:03;;;;;;;9.97;7.83;;;18.50;99.90;;;;;;5054610;28;20386;-93
2023/08/18 06:56:28;;;;;;;11.55;8.27;;;18.50;99.90;;;;;;5055599;28;20386;-91
2023/08/18 06:58:54;;;;;;;11.30;8.60;;;18.60;99.90;;;;;;5054692;28;20450;-92
2023/08/18 07:01:20;;;;;;;11.70;8.57;;;18.60;99.90;;;;;;5054934;28;20406;-91
2023/08/18 07:03:47;;;;;;;9.90;8.43;;;18.80;99.90;;;;;;5054835;28;20437;-92
2023/08/18 07:06:13;;;;;;;10.40;8.45;;;18.60;99.90;;;;;;5054571;28;20443;-91
2023/08/18 07:08:39;;;;;;;10.48;7.95;;;18.70;99.90;;;;;;5055533;28;20413;-90
2023/08/18 07:11:05;;;;;;;9.70;7.43;;;18.70;99.90;;;;;;5054509;28;20410;-91
2023/08/18 07:13:30;;;;;;;12.27;7.70;;;18.50;99.90;;;;;;5072142;28;20402;-92
2023/08/18 07:15:56;;;;;;;11.17;7.83;;;18.70;99.90;;;;;;5054544;28;20399;-91
2023/08/18 07:18:22;;;;;;;12.32;8.13;;;18.90;99.90;;;;;;5054565;28;20453;-91
2023/08/18 07:20:48;;;;;;;10.20;7.75;;;18.90;99.90;;;;;;5054683;28;20398;-90
2023/08/18 07:23:14;;;;;;;10.33;7.90;;;18.90;99.90;;;;;;5054188;28;20434;-91
2023/08/18 07:25:41;;;;;;;9.98;7.65;;;19.30;99.90;;;;;;5054949;28;20426;-91
2023/08/18 07:28:07;;;;;;;11.65;8.10;;;19.00;99.90;;;;;;5054200;28;20402;-90
2023/08/18 07:30:32;;;;;;;9.45;7.13;;;19.20;99.90;;;;;;5055367;28;20401;-91
2023/08/18 07:32:58;;;;;;;10.40;7.70;;;19.20;99.90;;;;;;5054276;28;20398;-90
2023/08/18 07:35:24;;;;;;;9.93;7.47;;;19.20;99.90;;;;;;5054846;28;20850;-91
2023/08/18 07:37:51;;;;;;;9.88;7.30;;;19.30;99.90;;;;;;5054695;28;20410;-93
2023/08/18 07:40:17;;;;;;;8.75;6.57;;;19.40;99.90;;;;;;5053934;28;20402;-93
2023/08/18 07:42:46;;;;;;;8.20;6.50;;;19.50;99.90;;;;;;5053752;28;20410;-93
2023/08/18 07:45:12;;;;;;;10.10;6.60;;;19.60;99.90;;;;;;5053530;28;20414;-92
2023/08/18 07:47:38;;;;;;;8.90;6.65;;;19.60;99.90;;;;;;5054718;28;20393;-92
2023/08/18 07:50:09;;;;;;;10.35;6.60;;;19.60;99.90;;;;;;5053531;28;21118;-90
2023/08/18 07:52:35;;;;;;;7.90;6.40;;;19.80;99.90;;;;;;5054489;28;20394;-92
2023/08/18 07:55:02;;;;;;;7.93;6.53;;;19.50;99.90;;;;;;5054156;28;20485;-91
2023/08/18 07:57:28;;;;;;;12.85;7.22;;;19.50;99.90;;;;;;5053788;28;20426;-93
2023/08/18 07:59:54;;;;;;;9.27;6.67;;;20.00;99.90;;;;;;5053978;28;20406;-91
2023/08/18 08:02:20;;;;;;;7.82;7.05;;;19.90;99.90;;;;;;5070540;28;20398;-94
2023/08/18 08:04:45;;;;;;;8.00;7.03;;;20.20;99.90;;;;;;5054077;28;20409;-92
2023/08/18 08:07:12;;;;;;;10.80;6.90;;;20.30;99.90;;;;;;5069845;28;20430;-93
2023/08/18 08:09:39;;;;;;;8.50;6.80;;;20.10;99.90;;;;;;5053510;28;20456;-91
2023/08/18 08:12:06;;;;;;;7.93;7.13;;;19.80;99.90;;;;;;5053899;28;20409;-91
2023/08/18 08:14:31;;;;;;;8.13;7.07;;;19.80;99.90;;;;;;5070905;28;20398;-92
2023/08/18 08:16:58;;;;;;;9.77;7.43;;;19.70;99.90;;;;;;5054086;28;20874;-93
2023/08/18 08:19:24;;;;;;;11.35;7.70;;;20.10;99.90;;;;;;5053566;28;20405;-93
2023/08/18 08:21:50;;;;;;;9.35;7.70;;;19.80;99.90;;;;;;5053382;28;20402;-91
2023/08/18 08:24:16;;;;;;;9.88;7.43;;;20.00;99.90;;;;;;5053084;28;20916;-93
2023/08/18 08:26:41;;;;;;;8.87;7.43;;;19.70;99.90;;;;;;5053771;28;20686;-94
2023/08/18 08:29:07;;;;;;;9.55;7.35;;;19.70;99.90;;;;;;5053267;28;20406;-94
2023/08/18 08:31:33;;;;;;;11.73;7.40;;;19.90;99.90;;;;;;5053854;28;20398;-92
2023/08/18 08:33:59;;;;;;;7.93;6.82;;;20.00;99.90;;;;;;5053393;28;20401;-93
2023/08/18 08:36:28;;;;;;;9.85;6.88;;;19.90;99.90;;;;;;5052922;28;20410;-92
2023/08/18 08:38:53;;;;;;;9.07;7.03;;;19.60;99.90;;;;;;5053245;28;20478;-90
2023/08/18 08:41:20;;;;;;;8.40;6.80;;;20.40;99.90;;;;;;5052944;28;20461;-93
2023/08/18 08:43:46;;;;;;;7.68;6.30;;;20.30;99.90;;;;;;5053945;28;21234;-94
2023/08/18 08:46:12;;;;;;;8.55;6.60;;;20.70;99.90;;;;;;5052778;28;20422;-91
2023/08/18 08:48:43;;;;;;;7.65;6.85;;;20.80;99.90;;;;;;5053825;28;20401;-93
2023/08/18 08:51:10;;;;;;;8.30;6.90;;;20.50;99.90;;;;;;5049434;28;20795;-92
2023/08/18 08:53:40;;;;;;;8.95;7.50;;;20.60;99.90;;;;;;5049719;28;20408;-91
2023/08/18 08:56:08;;;;;;;8.50;7.10;;;20.50;99.90;;;;;;5066547;28;20490;-90
2023/08/18 08:58:36;;;;;;;8.48;7.15;;;20.50;99.90;;;;;;5049628;28;20412;-93
2023/08/18 09:01:06;;;;;;;8.48;6.90;;;20.50;99.90;;;;;;5050201;28;20423;-92
2023/08/18 09:03:33;;;;;;;9.02;7.47;;;20.60;99.90;;;;;;5065869;28;20491;-90
2023/08/18 09:05:59;;;;;;;8.75;7.80;;;20.80;99.90;;;;;;5050027;28;20451;-94
2023/08/18 09:08:25;;;;;;;9.40;8.40;;;20.70;99.90;;;;;;5049848;28;20483;-91
2023/08/18 09:10:54;;;;;;;9.15;8.13;;;20.70;99.90;;;;;;5049812;28;20399;-94
2023/08/18 09:13:20;;;;;;;10.93;8.93;;;20.90;99.90;;;;;;5066304;28;20408;-91
2023/08/18 09:15:47;;;;;;;12.20;9.05;;;21.10;99.90;;;;;;5049005;28;20406;-93
2023/08/18 09:18:14;;;;;;;10.80;8.85;;;21.10;99.90;;;;;;5050519;28;20776;-90
2023/08/18 09:20:42;;;;;;;11.63;8.70;;;20.80;99.90;;;;;;5050740;28;20406;-93
2023/08/18 09:23:08;;;;;;;10.43;7.75;;;20.80;99.90;;;;;;5054294;28;20395;-93
2023/08/18 09:25:34;;;;;;;9.40;7.68;;;21.00;99.90;;;;;;5048211;28;20425;-92
2023/08/18 09:28:03;;;;;;;12.90;8.30;;;20.90;99.90;;;;;;5038950;28;20470;-92
2023/08/18 09:30:32;;;;;;;11.15;7.95;;;20.80;99.90;;;;;;5026475;28;20444;-93
2023/08/18 09:33:04;;;;;;;11.68;8.07;;;20.90;99.90;;;;;;5017126;28;20402;-93
2023/08/18 09:35:36;;;;;;;13.90;8.13;;;21.10;99.90;;;;;;5033955;28;20413;-92
2023/08/18 09:38:02;;;;;;;14.45;8.13;;;21.20;99.90;;;;;;5033393;28;20416;-92
2023/08/18 09:40:29;;;;;;;11.85;8.18;;;21.40;99.90;;;;;;5034000;28;20401;-94
2023/08/18 09:42:55;;;;;;;13.05;8.80;;;21.60;99.90;;;;;;5034019;28;20401;-90
2023/08/18 09:45:28;;;;;;;12.77;9.10;;;21.80;99.90;;;;;;5033940;28;20531;-92
2023/08/18 09:47:55;;;;;;;13.00;8.60;;;21.80;99.90;;;;;;5033830;28;20405;-94
2023/08/18 09:50:25;;;;;;;13.55;8.15;;;21.90;99.90;;;;;;5045310;28;20414;-92
2023/08/18 09:53:02;;;;;;;14.35;9.00;;;22.00;99.90;;;;;;5037930;28;20395;-94
2023/08/18 09:55:33;;;;;;;12.90;8.07;;;22.00;99.90;;;;;;5053283;28;20404;-91
2023/08/18 09:58:14;;;;;;;12.73;8.10;;;22.00;99.90;;;;;;5055267;28;20792;-92
2023/08/18 10:00:45;;;;;;;13.15;7.72;;;22.00;99.90;;;;;;5054431;28;20487;-92
2023/08/18 10:03:16;;;;;;;13.43;7.90;;;22.30;99.90;;;;;;5052492;28;20999;-93
2023/08/18 10:05:46;;;;;;;12.05;8.05;;;22.10;99.90;;;;;;5052276;28;20489;-91
2023/08/18 10:08:13;;;;;;;12.07;7.80;;;22.40;99.90;;;;;;5052682;28;20408;-94
2023/08/18 10:10:42;;;;;;;15.00;8.48;;;22.60;99.90;;;;;;5054955;28;20474;-95
2023/08/18 10:13:08;;;;;;;16.13;8.27;;;23.10;99.90;;;;;;5052752;28;20412;-94
2023/08/18 10:15:35;;;;;;;14.05;8.02;;;23.00;99.90;;;;;;5054273;28;20404;-93
2023/08/18 10:18:23;;;;;;;12.60;7.53;;;23.20;99.90;;;;;;5052580;28;20409;-92
2023/08/18 10:20:59;;;;;;;15.13;8.00;;;23.40;99.90;;;;;;5053870;28;20447;-92
2023/08/18 10:23:29;;;;;;;13.10;7.90;;;23.50;99.90;;;;;;5052738;28;20408;-92
2023/08/18 10:25:55;;;;;;;14.20;7.95;;;23.90;99.90;;;;;;5053530;28;20430;-92
2023/08/18 10:28:22;;;;;;;10.97;6.93;;;23.80;99.90;;;;;;5054688;28;20395;-94
2023/08/18 10:31:00;;;;;;;13.00;7.40;;;23.70;99.90;;;;;;5053408;28;20407;-91
2023/08/18 10:33:37;;;;;;;13.10;7.35;;;23.60;99.90;;;;;;5053071;28;20939;-92
2023/08/18 10:36:04;;;;;;;11.07;7.20;;;23.60;99.90;;;;;;5070755;28;20490;-92
2023/08/18 10:38:33;;;;;;;9.43;7.10;;;23.60;99.90;;;;;;5035466;28;21062;-94
2023/08/18 10:40:59;;;;;;;9.65;7.15;;;23.70;99.90;;;;;;5051946;28;20765;-93
2023/08/18 10:43:30;;;;;;;10.85;7.18;;;24.20;99.90;;;;;;5050885;28;20411;-92
2023/08/18 10:46:00;;;;;;;10.02;6.60;;;24.20;99.90;;;;;;5050791;28;20974;-93
2023/08/18 10:48:32;;;;;;;10.90;6.63;;;24.00;99.90;;;;;;5050191;28;20427;-90
2023/08/18 10:50:59;;;;;;;10.20;7.00;;;24.30;99.90;;;;;;5051386;28;20423;-95
2023/08/18 10:53:26;;;;;;;9.70;6.90;;;23.90;99.90;;;;;;5047193;28;20397;-93
2023/08/18 10:55:55;;;;;;;8.43;6.45;;;23.70;99.90;;;;;;5047706;28;20458;-92
2023/08/18 10:58:21;;;;;;;7.95;6.20;;;24.10;99.90;;;;;;5030823;28;20445;-92
2023/08/18 11:00:48;;;;;;;8.30;6.03;;;24.20;99.90;;;;;;5030028;28;20480;-93
2023/08/18 11:03:14;;;;;;;10.68;6.35;;;24.40;99.90;;;;;;5031643;28;20548;-94
2023/08/18 11:05:39;;;;;;;7.53;6.10;;;24.30;99.90;;;;;;5030382;28;20472;-91
2023/08/18 11:08:09;;;;;;;7.28;5.85;;;24.20;99.90;;;;;;5047787;28;20394;-93
2023/08/18 11:10:38;;;;;;;7.85;6.10;;;24.30;99.90;;;;;;5030484;28;20429;-91
2023/08/18 11:13:04;;;;;;;8.05;5.75;;;24.30;99.90;;;;;;5030407;28;20463;-91
2023/08/18 11:15:30;;;;;;;7.20;6.30;;;24.20;99.90;;;;;;5030728;28;20409;-91
2023/08/18 11:17:56;;;;;;;7.85;6.45;;;24.10;99.90;;;;;;5029780;28;20408;-92
2023/08/18 11:20:22;;;;;;;7.93;6.30;;;24.10;99.90;;;;;;5030496;28;20401;-88
2023/08/18 11:22:51;;;;;;;8.57;6.40;;;24.20;99.90;;;;;;5029932;28;20402;-91
2023/08/18 11:25:19;;;;;;;7.32;6.35;;;24.20;99.90;;;;;;5047327;28;20806;-91
2023/08/18 11:27:45;;;;;;;8.40;6.38;;;24.20;99.90;;;;;;5046811;28;20406;-93
2023/08/18 11:30:14;;;;;;;7.18;6.47;;;24.30;99.90;;;;;;5030154;28;20405;-91
2023/08/18 11:32:41;;;;;;;8.18;6.60;;;24.30;99.90;;;;;;5030160;28;20413;-92
2023/08/18 11:35:09;;;;;;;7.70;6.88;;;24.30;99.90;;;;;;5029952;28;20884;-93
2023/08/18 11:37:42;;;;;;;7.72;6.93;;;24.40;99.90;;;;;;5054353;28;20469;-94
2023/08/18 11:40:12;;;;;;;7.75;7.05;;;24.50;99.90;;;;;;5049019;28;20479;-92
2023/08/18 11:42:45;;;;;;;7.43;6.73;;;24.50;99.90;;;;;;5048139;28;20763;-95
2023/08/18 11:45:15;;;;;;;8.63;6.90;;;24.90;99.90;;;;;;5030998;28;20481;-93
2023/08/18 11:47:44;;;;;;;8.02;7.22;;;24.90;99.90;;;;;;5032848;28;20436;-93
2023/08/18 11:50:13;;;;;;;8.38;7.57;;;24.70;99.90;;;;;;5031358;28;20437;-92
2023/08/18 11:52:49;;;;;;;8.07;7.30;;;24.80;99.90;;;;;;5033949;28;20402;-93
2023/08/18 11:55:35;;;;;;;8.40;7.70;;;24.90;99.90;;;;;;5035106;28;20500;-94
2023/08/18 11:58:10;;;;;;;8.30;7.50;;;25.00;99.90;;;;;;5032088;28;20459;-92
2023/08/18 12:00:39;;;;;;;7.40;6.70;;;25.00;99.90;;;;;;5032835;28;22841;-94
2023/08/18 12:03:26;;;;;;;7.97;7.10;;;25.30;99.90;;;;;;5018231;28;20404;-94
2023/08/18 12:05:53;;;;;;;7.82;7.03;;;25.20;99.40;;;;;;5033801;28;20429;-91
2023/08/18 12:08:20;;;;;;;7.75;7.05;;;25.20;99.90;;;;;;5032928;28;20848;-92
2023/08/18 12:10:49;;;;;;;8.90;8.00;;;25.30;98.20;;;;;;5032124;28;20453;-93
2023/08/18 12:13:15;;;;;;;8.00;7.30;;;25.50;97.80;;;;;;5033862;28;20417;-94
2023/08/18 12:15:41;;;;;;;8.57;7.85;;;25.40;96.40;;;;;;5030573;28;20440;-92
2023/08/18 12:18:07;;;;;;;8.60;7.70;;;25.70;96.80;;;;;;5032698;28;20480;-91
2023/08/18 12:20:33;;;;;;;10.07;8.60;;;25.80;99.90;;;;;;5031303;28;20444;-94
2023/08/18 12:22:59;;;;;;;8.20;7.50;;;26.10;97.20;;;;;;5031272;28;21014;-92
2023/08/18 12:25:25;;;;;;;8.90;8.10;;;25.90;98.00;;;;;;5030961;28;20405;-90
2023/08/18 12:27:51;;;;;;;8.88;8.10;;;25.90;96.30;;;;;;5032399;28;20631;-91
2023/08/18 12:30:19;;;;;;;8.63;7.90;;;25.60;97.20;;;;;;5031661;28;20401;-93
2023/08/18 12:32:48;;;;;;;10.23;8.45;;;25.90;97.50;;;;;;5031817;28;20754;-94
2023/08/18 12:35:13;;;;;;;9.75;8.23;;;26.20;96.60;;;;;;5015918;28;20479;-94
2023/08/18 12:37:40;;;;;;;9.60;8.70;;;26.10;97.00;;;;;;5030383;28;20401;-93
2023/08/18 12:40:12;;;;;;;8.18;7.40;;;26.30;94.30;;;;;;5032568;28;20492;-92
2023/08/18 12:42:41;;;;;;;9.05;8.25;;;26.40;97.10;;;;;;5031756;28;20428;-94
2023/08/18 12:45:09;;;;;;;8.20;7.50;;;26.60;94.10;;;;;;5050781;28;20488;-95